sensor_id;sensor_type;location;lat;lon;timestamp;temperature;humidity
14614;DHT22;7393;51.446;6.800;2023-12-20T00:02:15;8.20;1.00
14614;DHT22;7393;51.446;6.800;2023-12-20T00:04:42;8.20;1.00
14614;DHT22;7393;51.446;6.800;2023-12-20T00:07:09;8.10;1.00
14614;DHT22;7393;51.446;6.800;2023-12-20T00:09:36;8.20;1.00
14614;DHT22;7393;51.446;6.800;2023-12-20T00:12:04;8.10;1.00
14614;DHT22;7393;51.446;6.800;2023-12-20T00:14:31;8.10;1.00
14614;DHT22;7393;51.446;6.800;2023-12-20T00:16:58;8.10;1.00
14614;DHT22;7393;51.446;6.800;2023-12-20T00:19:25;8.00;1.00
14614;DHT22;7393;51.446;6.800;2023-12-20T00:21:51;8.00;1.00
14614;DHT22;7393;51.446;6.800;2023-12-20T00:24:18;8.00;1.00
14614;DHT22;7393;51.446;6.800;2023-12-20T00:26:46;8.00;1.00
14614;DHT22;7393;51.446;6.800;2023-12-20T00:29:14;8.00;1.00
14614;DHT22;7393;51.446;6.800;2023-12-20T00:31:40;8.00;1.00
14614;DHT22;7393;51.446;6.800;2023-12-20T00:34:07;7.90;1.00
14614;DHT22;7393;51.446;6.800;2023-12-20T00:36:34;7.90;1.00
14614;DHT22;7393;51.446;6.800;2023-12-20T00:39:01;7.90;1.00
14614;DHT22;7393;51.446;6.800;2023-12-20T00:41:28;7.90;1.00
14614;DHT22;7393;51.446;6.800;2023-12-20T00:43:54;7.90;1.00
14614;DHT22;7393;51.446;6.800;2023-12-20T00:46:23;7.80;1.00
14614;DHT22;7393;51.446;6.800;2023-12-20T00:48:49;7.70;1.00
14614;DHT22;7393;51.446;6.800;2023-12-20T00:51:16;7.70;1.00
14614;DHT22;7393;51.446;6.800;2023-12-20T00:53:43;7.70;1.00
14614;DHT22;7393;51.446;6.800;2023-12-20T00:56:10;7.70;1.00
14614;DHT22;7393;51.446;6.800;2023-12-20T00:58:36;7.70;1.00
14614;DHT22;7393;51.446;6.800;2023-12-20T01:01:03;7.70;1.00
14614;DHT22;7393;51.446;6.800;2023-12-20T01:03:31;7.60;1.00
14614;DHT22;7393;51.446;6.800;2023-12-20T01:05:58;7.70;1.00
14614;DHT22;7393;51.446;6.800;2023-12-20T01:08:25;7.70;1.00
14614;DHT22;7393;51.446;6.800;2023-12-20T01:10:52;7.70;1.00
14614;DHT22;7393;51.446;6.800;2023-12-20T01:13:18;7.70;1.00
14614;DHT22;7393;51.446;6.800;2023-12-20T01:15:45;7.70;1.00
14614;DHT22;7393;51.446;6.800;2023-12-20T01:18:13;7.70;1.00
14614;DHT22;7393;51.446;6.800;2023-12-20T01:20:41;7.70;1.00
14614;DHT22;7393;51.446;6.800;2023-12-20T01:23:08;7.60;1.00
14614;DHT22;7393;51.446;6.800;2023-12-20T01:25:34;7.60;1.00
14614;DHT22;7393;51.446;6.800;2023-12-20T01:28:02;7.60;1.00
14614;DHT22;7393;51.446;6.800;2023-12-20T01:30:29;7.60;1.00
14614;DHT22;7393;51.446;6.800;2023-12-20T01:32:56;7.60;1.00
14614;DHT22;7393;51.446;6.800;2023-12-20T01:35:23;7.60;1.00
14614;DHT22;7393;51.446;6.800;2023-12-20T01:37:50;7.60;1.00
14614;DHT22;7393;51.446;6.800;2023-12-20T01:40:17;7.60;1.00
14614;DHT22;7393;51.446;6.800;2023-12-20T01:42:43;7.60;1.00
14614;DHT22;7393;51.446;6.800;2023-12-20T01:45:10;7.60;1.00
14614;DHT22;7393;51.446;6.800;2023-12-20T01:47:37;7.60;1.00
14614;DHT22;7393;51.446;6.800;2023-12-20T01:50:05;7.60;1.00
14614;DHT22;7393;51.446;6.800;2023-12-20T01:52:34;7.60;1.00
14614;DHT22;7393;51.446;6.800;2023-12-20T01:55:03;7.50;1.00
14614;DHT22;7393;51.446;6.800;2023-12-20T01:57:36;7.50;1.00
14614;DHT22;7393;51.446;6.800;2023-12-20T02:00:04;7.50;1.00
14614;DHT22;7393;51.446;6.800;2023-12-20T02:02:31;7.40;1.00
14614;DHT22;7393;51.446;6.800;2023-12-20T02:04:58;7.50;1.00
14614;DHT22;7393;51.446;6.800;2023-12-20T02:07:25;7.40;1.00
14614;DHT22;7393;51.446;6.800;2023-12-20T02:09:52;7.40;1.00
14614;DHT22;7393;51.446;6.800;2023-12-20T02:12:21;7.40;1.00
14614;DHT22;7393;51.446;6.800;2023-12-20T02:14:48;7.40;1.00
14614;DHT22;7393;51.446;6.800;2023-12-20T02:17:15;7.40;1.00
14614;DHT22;7393;51.446;6.800;2023-12-20T02:19:43;7.30;1.00
14614;DHT22;7393;51.446;6.800;2023-12-20T02:22:11;7.30;1.00
14614;DHT22;7393;51.446;6.800;2023-12-20T02:24:38;7.20;1.00
14614;DHT22;7393;51.446;6.800;2023-12-20T02:27:06;7.20;1.00
14614;DHT22;7393;51.446;6.800;2023-12-20T02:29:33;7.30;1.00
14614;DHT22;7393;51.446;6.800;2023-12-20T02:32:00;7.30;1.00
14614;DHT22;7393;51.446;6.800;2023-12-20T02:34:27;7.30;1.00
14614;DHT22;7393;51.446;6.800;2023-12-20T02:36:54;7.30;1.00
14614;DHT22;7393;51.446;6.800;2023-12-20T02:39:22;7.30;1.00
14614;DHT22;7393;51.446;6.800;2023-12-20T02:41:49;7.20;1.00
14614;DHT22;7393;51.446;6.800;2023-12-20T02:44:16;7.20;1.00
14614;DHT22;7393;51.446;6.800;2023-12-20T02:46:42;7.10;1.00
14614;DHT22;7393;51.446;6.800;2023-12-20T02:49:09;7.20;1.00
14614;DHT22;7393;51.446;6.800;2023-12-20T02:51:36;7.10;1.00
14614;DHT22;7393;51.446;6.800;2023-12-20T02:54:04;7.10;1.00
14614;DHT22;7393;51.446;6.800;2023-12-20T02:56:32;7.00;1.00
14614;DHT22;7393;51.446;6.800;2023-12-20T02:58:59;7.00;1.00
14614;DHT22;7393;51.446;6.800;2023-12-20T03:01:26;6.90;1.00
14614;DHT22;7393;51.446;6.800;2023-12-20T03:03:53;6.90;1.00
14614;DHT22;7393;51.446;6.800;2023-12-20T03:06:19;6.90;1.00
14614;DHT22;7393;51.446;6.800;2023-12-20T03:08:46;6.80;1.00
14614;DHT22;7393;51.446;6.800;2023-12-20T03:11:13;6.80;1.00
14614;DHT22;7393;51.446;6.800;2023-12-20T03:13:41;6.70;1.00
14614;DHT22;7393;51.446;6.800;2023-12-20T03:16:08;6.70;1.00
14614;DHT22;7393;51.446;6.800;2023-12-20T03:18:35;6.90;1.00
14614;DHT22;7393;51.446;6.800;2023-12-20T03:21:02;6.70;1.00
14614;DHT22;7393;51.446;6.800;2023-12-20T03:23:29;6.70;1.00
14614;DHT22;7393;51.446;6.800;2023-12-20T03:25:56;6.70;1.00
14614;DHT22;7393;51.446;6.800;2023-12-20T03:28:22;6.70;1.00
14614;DHT22;7393;51.446;6.800;2023-12-20T03:30:50;6.70;1.00
14614;DHT22;7393;51.446;6.800;2023-12-20T03:33:17;6.70;1.00
14614;DHT22;7393;51.446;6.800;2023-12-20T03:35:44;6.70;1.00
14614;DHT22;7393;51.446;6.800;2023-12-20T03:38:11;6.70;1.00
14614;DHT22;7393;51.446;6.800;2023-12-20T03:40:38;6.70;1.00
14614;DHT22;7393;51.446;6.800;2023-12-20T03:43:04;6.70;1.00
14614;DHT22;7393;51.446;6.800;2023-12-20T03:45:31;6.70;1.00
14614;DHT22;7393;51.446;6.800;2023-12-20T03:47:59;6.60;1.00
14614;DHT22;7393;51.446;6.800;2023-12-20T03:50:26;6.60;1.00
14614;DHT22;7393;51.446;6.800;2023-12-20T03:52:53;6.60;1.00
14614;DHT22;7393;51.446;6.800;2023-12-20T03:55:20;6.60;1.00
14614;DHT22;7393;51.446;6.800;2023-12-20T03:57:47;6.70;1.00
14614;DHT22;7393;51.446;6.800;2023-12-20T04:00:14;6.70;1.00
14614;DHT22;7393;51.446;6.800;2023-12-20T04:02:41;6.70;1.00
14614;DHT22;7393;51.446;6.800;2023-12-20T04:05:10;6.60;1.00
14614;DHT22;7393;51.446;6.800;2023-12-20T04:07:37;6.60;1.00
14614;DHT22;7393;51.446;6.800;2023-12-20T04:10:04;6.50;1.00
14614;DHT22;7393;51.446;6.800;2023-12-20T04:12:32;6.50;1.00
14614;DHT22;7393;51.446;6.800;2023-12-20T04:14:59;6.50;1.00
14614;DHT22;7393;51.446;6.800;2023-12-20T04:17:25;6.50;1.00
14614;DHT22;7393;51.446;6.800;2023-12-20T04:19:52;6.60;1.00
14614;DHT22;7393;51.446;6.800;2023-12-20T04:22:20;6.50;1.00
14614;DHT22;7393;51.446;6.800;2023-12-20T04:24:47;6.50;1.00
14614;DHT22;7393;51.446;6.800;2023-12-20T04:27:14;6.50;1.00
14614;DHT22;7393;51.446;6.800;2023-12-20T04:29:40;6.50;1.00
14614;DHT22;7393;51.446;6.800;2023-12-20T04:32:07;6.50;1.00
14614;DHT22;7393;51.446;6.800;2023-12-20T04:34:34;6.50;1.00
14614;DHT22;7393;51.446;6.800;2023-12-20T04:37:00;6.50;1.00
14614;DHT22;7393;51.446;6.800;2023-12-20T04:39:29;6.50;1.00
14614;DHT22;7393;51.446;6.800;2023-12-20T04:41:56;6.50;1.00
14614;DHT22;7393;51.446;6.800;2023-12-20T04:44:23;6.50;1.00
14614;DHT22;7393;51.446;6.800;2023-12-20T04:46:50;6.50;1.00
14614;DHT22;7393;51.446;6.800;2023-12-20T04:49:16;6.50;1.00
14614;DHT22;7393;51.446;6.800;2023-12-20T04:51:43;6.50;1.00
14614;DHT22;7393;51.446;6.800;2023-12-20T04:54:10;6.60;1.00
14614;DHT22;7393;51.446;6.800;2023-12-20T04:56:38;6.50;1.00
14614;DHT22;7393;51.446;6.800;2023-12-20T04:59:05;6.50;1.00
14614;DHT22;7393;51.446;6.800;2023-12-20T05:01:32;6.60;1.00
14614;DHT22;7393;51.446;6.800;2023-12-20T05:03:59;6.50;1.00
14614;DHT22;7393;51.446;6.800;2023-12-20T05:06:26;6.50;1.00
14614;DHT22;7393;51.446;6.800;2023-12-20T05:08:52;6.50;1.00
14614;DHT22;7393;51.446;6.800;2023-12-20T05:11:19;6.50;1.00
14614;DHT22;7393;51.446;6.800;2023-12-20T05:13:47;6.50;1.00
14614;DHT22;7393;51.446;6.800;2023-12-20T05:16:14;6.50;1.00
14614;DHT22;7393;51.446;6.800;2023-12-20T05:18:43;6.50;1.00
14614;DHT22;7393;51.446;6.800;2023-12-20T05:21:10;6.50;1.00
14614;DHT22;7393;51.446;6.800;2023-12-20T05:23:36;6.40;1.00
14614;DHT22;7393;51.446;6.800;2023-12-20T05:26:03;6.40;1.00
14614;DHT22;7393;51.446;6.800;2023-12-20T05:28:30;6.40;1.00
14614;DHT22;7393;51.446;6.800;2023-12-20T05:30:58;6.40;1.00
14614;DHT22;7393;51.446;6.800;2023-12-20T05:33:25;6.40;1.00
14614;DHT22;7393;51.446;6.800;2023-12-20T05:35:51;6.40;1.00
14614;DHT22;7393;51.446;6.800;2023-12-20T05:38:18;6.40;1.00
14614;DHT22;7393;51.446;6.800;2023-12-20T05:40:45;6.30;1.00
14614;DHT22;7393;51.446;6.800;2023-12-20T05:43:11;6.30;1.00
14614;DHT22;7393;51.446;6.800;2023-12-20T05:45:38;6.30;1.00
14614;DHT22;7393;51.446;6.800;2023-12-20T05:48:07;6.40;1.00
14614;DHT22;7393;51.446;6.800;2023-12-20T05:50:33;6.40;1.00
14614;DHT22;7393;51.446;6.800;2023-12-20T05:53:01;6.50;1.00
14614;DHT22;7393;51.446;6.800;2023-12-20T05:55:27;6.40;1.00
14614;DHT22;7393;51.446;6.800;2023-12-20T05:57:54;6.50;1.00
14614;DHT22;7393;51.446;6.800;2023-12-20T06:00:21;6.50;1.00
14614;DHT22;7393;51.446;6.800;2023-12-20T06:02:48;6.50;1.00
14614;DHT22;7393;51.446;6.800;2023-12-20T06:05:16;6.50;1.00
14614;DHT22;7393;51.446;6.800;2023-12-20T06:07:43;6.50;1.00
14614;DHT22;7393;51.446;6.800;2023-12-20T06:10:10;6.50;1.00
14614;DHT22;7393;51.446;6.800;2023-12-20T06:12:37;6.60;1.00
14614;DHT22;7393;51.446;6.800;2023-12-20T06:15:04;6.50;1.00
14614;DHT22;7393;51.446;6.800;2023-12-20T06:17:31;6.60;1.00
14614;DHT22;7393;51.446;6.800;2023-12-20T06:19:58;6.60;1.00
14614;DHT22;7393;51.446;6.800;2023-12-20T06:22:26;6.60;1.00
14614;DHT22;7393;51.446;6.800;2023-12-20T06:24:53;6.60;1.00
14614;DHT22;7393;51.446;6.800;2023-12-20T06:27:20;6.60;1.00
14614;DHT22;7393;51.446;6.800;2023-12-20T06:29:47;6.60;1.00
14614;DHT22;7393;51.446;6.800;2023-12-20T06:32:13;6.60;1.00
14614;DHT22;7393;51.446;6.800;2023-12-20T06:34:40;6.60;1.00
14614;DHT22;7393;51.446;6.800;2023-12-20T06:37:07;6.60;1.00
14614;DHT22;7393;51.446;6.800;2023-12-20T06:39:35;6.80;1.00
14614;DHT22;7393;51.446;6.800;2023-12-20T06:42:02;6.60;1.00
14614;DHT22;7393;51.446;6.800;2023-12-20T06:44:29;6.60;1.00
14614;DHT22;7393;51.446;6.800;2023-12-20T06:46:57;6.60;1.00
14614;DHT22;7393;51.446;6.800;2023-12-20T06:49:23;6.70;1.00
14614;DHT22;7393;51.446;6.800;2023-12-20T06:51:50;6.70;1.00
14614;DHT22;7393;51.446;6.800;2023-12-20T06:54:17;6.70;1.00
14614;DHT22;7393;51.446;6.800;2023-12-20T06:56:45;6.70;1.00
14614;DHT22;7393;51.446;6.800;2023-12-20T06:59:12;6.70;1.00
14614;DHT22;7393;51.446;6.800;2023-12-20T07:01:39;6.70;1.00
14614;DHT22;7393;51.446;6.800;2023-12-20T07:04:05;6.80;1.00
14614;DHT22;7393;51.446;6.800;2023-12-20T07:06:32;6.90;1.00
14614;DHT22;7393;51.446;6.800;2023-12-20T07:08:59;6.90;1.00
14614;DHT22;7393;51.446;6.800;2023-12-20T07:11:26;6.90;1.00
14614;DHT22;7393;51.446;6.800;2023-12-20T07:13:54;6.90;1.00
14614;DHT22;7393;51.446;6.800;2023-12-20T07:16:22;6.90;1.00
14614;DHT22;7393;51.446;6.800;2023-12-20T07:18:48;6.90;1.00
14614;DHT22;7393;51.446;6.800;2023-12-20T07:21:15;6.90;1.00
14614;DHT22;7393;51.446;6.800;2023-12-20T07:23:42;6.90;1.00
14614;DHT22;7393;51.446;6.800;2023-12-20T07:26:09;6.90;1.00
14614;DHT22;7393;51.446;6.800;2023-12-20T07:28:36;6.90;1.00
14614;DHT22;7393;51.446;6.800;2023-12-20T07:31:05;6.90;1.00
14614;DHT22;7393;51.446;6.800;2023-12-20T07:33:31;6.90;1.00
14614;DHT22;7393;51.446;6.800;2023-12-20T07:35:59;6.90;1.00
14614;DHT22;7393;51.446;6.800;2023-12-20T07:38:26;6.90;1.00
14614;DHT22;7393;51.446;6.800;2023-12-20T07:40:53;7.00;1.00
14614;DHT22;7393;51.446;6.800;2023-12-20T07:43:19;7.00;1.00
14614;DHT22;7393;51.446;6.800;2023-12-20T07:45:47;7.10;1.00
14614;DHT22;7393;51.446;6.800;2023-12-20T07:48:15;7.00;1.00
14614;DHT22;7393;51.446;6.800;2023-12-20T07:50:42;7.10;1.00
14614;DHT22;7393;51.446;6.800;2023-12-20T07:53:08;7.00;1.00
14614;DHT22;7393;51.446;6.800;2023-12-20T07:55:35;7.00;1.00
14614;DHT22;7393;51.446;6.800;2023-12-20T07:58:02;7.00;1.00
14614;DHT22;7393;51.446;6.800;2023-12-20T08:00:30;7.10;1.00
14614;DHT22;7393;51.446;6.800;2023-12-20T08:02:57;7.10;1.00
14614;DHT22;7393;51.446;6.800;2023-12-20T08:05:25;7.20;99.90
14614;DHT22;7393;51.446;6.800;2023-12-20T08:07:52;7.10;1.00
14614;DHT22;7393;51.446;6.800;2023-12-20T08:10:19;7.20;99.90
14614;DHT22;7393;51.446;6.800;2023-12-20T08:12:46;7.10;99.90
14614;DHT22;7393;51.446;6.800;2023-12-20T08:15:13;7.10;99.90
14614;DHT22;7393;51.446;6.800;2023-12-20T08:17:40;7.10;1.00
14614;DHT22;7393;51.446;6.800;2023-12-20T08:20:07;7.20;99.90
14614;DHT22;7393;51.446;6.800;2023-12-20T08:22:35;7.10;99.90
14614;DHT22;7393;51.446;6.800;2023-12-20T08:25:02;7.20;99.90
14614;DHT22;7393;51.446;6.800;2023-12-20T08:27:29;7.10;99.90
14614;DHT22;7393;51.446;6.800;2023-12-20T08:29:57;7.10;99.90
14614;DHT22;7393;51.446;6.800;2023-12-20T08:32:25;7.10;99.90
14614;DHT22;7393;51.446;6.800;2023-12-20T08:34:52;7.20;99.90
14614;DHT22;7393;51.446;6.800;2023-12-20T08:37:19;7.10;99.90
14614;DHT22;7393;51.446;6.800;2023-12-20T08:39:47;7.20;99.90
14614;DHT22;7393;51.446;6.800;2023-12-20T08:42:13;7.20;99.90
14614;DHT22;7393;51.446;6.800;2023-12-20T08:44:40;7.20;99.90
14614;DHT22;7393;51.446;6.800;2023-12-20T08:47:07;7.30;99.90
14614;DHT22;7393;51.446;6.800;2023-12-20T08:49:38;7.20;99.90
14614;DHT22;7393;51.446;6.800;2023-12-20T08:52:05;7.20;99.90
14614;DHT22;7393;51.446;6.800;2023-12-20T08:54:32;7.20;99.90
14614;DHT22;7393;51.446;6.800;2023-12-20T08:57:00;7.20;99.90
14614;DHT22;7393;51.446;6.800;2023-12-20T08:59:27;7.20;99.90
14614;DHT22;7393;51.446;6.800;2023-12-20T09:01:54;7.20;99.90
14614;DHT22;7393;51.446;6.800;2023-12-20T09:04:21;7.20;99.90
14614;DHT22;7393;51.446;6.800;2023-12-20T09:06:48;7.10;99.90
14614;DHT22;7393;51.446;6.800;2023-12-20T09:09:15;7.20;99.90
14614;DHT22;7393;51.446;6.800;2023-12-20T09:11:41;7.20;99.90
14614;DHT22;7393;51.446;6.800;2023-12-20T09:14:10;7.20;99.90
14614;DHT22;7393;51.446;6.800;2023-12-20T09:16:36;7.20;99.90
14614;DHT22;7393;51.446;6.800;2023-12-20T09:19:03;7.20;99.90
14614;DHT22;7393;51.446;6.800;2023-12-20T09:21:30;7.10;99.90
14614;DHT22;7393;51.446;6.800;2023-12-20T09:23:57;7.10;99.90
14614;DHT22;7393;51.446;6.800;2023-12-20T09:26:24;7.20;99.90
14614;DHT22;7393;51.446;6.800;2023-12-20T09:28:51;7.10;99.90
14614;DHT22;7393;51.446;6.800;2023-12-20T09:31:19;7.20;99.90
14614;DHT22;7393;51.446;6.800;2023-12-20T09:33:45;7.10;99.90
14614;DHT22;7393;51.446;6.800;2023-12-20T09:36:12;7.20;96.00
14614;DHT22;7393;51.446;6.800;2023-12-20T09:38:39;7.20;99.90
14614;DHT22;7393;51.446;6.800;2023-12-20T09:41:07;7.20;99.90
14614;DHT22;7393;51.446;6.800;2023-12-20T09:43:37;7.30;21.80
14614;DHT22;7393;51.446;6.800;2023-12-20T09:46:06;7.30;47.00
14614;DHT22;7393;51.446;6.800;2023-12-20T09:48:34;7.20;99.90
14614;DHT22;7393;51.446;6.800;2023-12-20T09:51:03;7.30;1.00
14614;DHT22;7393;51.446;6.800;2023-12-20T09:53:30;7.30;99.90
14614;DHT22;7393;51.446;6.800;2023-12-20T09:55:59;7.30;95.40
14614;DHT22;7393;51.446;6.800;2023-12-20T09:58:26;7.20;99.90
14614;DHT22;7393;51.446;6.800;2023-12-20T10:00:54;7.30;99.90
14614;DHT22;7393;51.446;6.800;2023-12-20T10:03:24;7.30;99.90
14614;DHT22;7393;51.446;6.800;2023-12-20T10:05:54;7.30;99.90
14614;DHT22;7393;51.446;6.800;2023-12-20T10:08:24;7.30;99.90
14614;DHT22;7393;51.446;6.800;2023-12-20T10:10:50;7.30;99.90
14614;DHT22;7393;51.446;6.800;2023-12-20T10:13:17;7.30;99.90
14614;DHT22;7393;51.446;6.800;2023-12-20T10:15:44;7.30;99.90
14614;DHT22;7393;51.446;6.800;2023-12-20T10:18:12;7.30;99.90
14614;DHT22;7393;51.446;6.800;2023-12-20T10:20:40;7.30;99.90
14614;DHT22;7393;51.446;6.800;2023-12-20T10:23:09;7.40;1.00
14614;DHT22;7393;51.446;6.800;2023-12-20T10:25:36;7.40;99.90
14614;DHT22;7393;51.446;6.800;2023-12-20T10:28:10;7.50;99.90
14614;DHT22;7393;51.446;6.800;2023-12-20T10:30:37;7.50;1.00
14614;DHT22;7393;51.446;6.800;2023-12-20T10:33:05;7.50;1.00
14614;DHT22;7393;51.446;6.800;2023-12-20T10:35:33;7.50;1.00
14614;DHT22;7393;51.446;6.800;2023-12-20T10:38:03;7.50;99.90
14614;DHT22;7393;51.446;6.800;2023-12-20T10:40:34;7.50;50.80
14614;DHT22;7393;51.446;6.800;2023-12-20T10:43:03;7.50;99.90
14614;DHT22;7393;51.446;6.800;2023-12-20T10:45:30;7.40;55.80
14614;DHT22;7393;51.446;6.800;2023-12-20T10:47:57;7.40;92.50
14614;DHT22;7393;51.446;6.800;2023-12-20T10:50:26;7.40;54.40
14614;DHT22;7393;51.446;6.800;2023-12-20T10:52:54;7.50;74.20
14614;DHT22;7393;51.446;6.800;2023-12-20T10:55:22;7.50;99.90
14614;DHT22;7393;51.446;6.800;2023-12-20T10:57:51;7.60;99.90
14614;DHT22;7393;51.446;6.800;2023-12-20T11:00:19;7.60;1.00
14614;DHT22;7393;51.446;6.800;2023-12-20T11:02:49;7.60;1.00
14614;DHT22;7393;51.446;6.800;2023-12-20T11:05:26;7.60;1.00
14614;DHT22;7393;51.446;6.800;2023-12-20T11:07:59;7.60;1.00
14614;DHT22;7393;51.446;6.800;2023-12-20T11:10:31;7.70;1.00
14614;DHT22;7393;51.446;6.800;2023-12-20T11:13:08;7.70;1.00
14614;DHT22;7393;51.446;6.800;2023-12-20T11:15:36;7.70;1.00
14614;DHT22;7393;51.446;6.800;2023-12-20T11:18:04;7.70;1.00
14614;DHT22;7393;51.446;6.800;2023-12-20T11:20:36;7.70;1.00
14614;DHT22;7393;51.446;6.800;2023-12-20T11:23:04;7.70;1.00
14614;DHT22;7393;51.446;6.800;2023-12-20T11:25:45;7.80;1.00
14614;DHT22;7393;51.446;6.800;2023-12-20T11:28:14;7.70;1.00
14614;DHT22;7393;51.446;6.800;2023-12-20T11:30:47;7.80;1.00
14614;DHT22;7393;51.446;6.800;2023-12-20T11:33:14;7.90;1.00
14614;DHT22;7393;51.446;6.800;2023-12-20T11:35:41;7.80;1.00
14614;DHT22;7393;51.446;6.800;2023-12-20T11:38:08;7.80;1.00
14614;DHT22;7393;51.446;6.800;2023-12-20T11:40:36;7.80;1.00
14614;DHT22;7393;51.446;6.800;2023-12-20T11:43:03;7.80;1.00
14614;DHT22;7393;51.446;6.800;2023-12-20T11:45:31;7.80;1.00
14614;DHT22;7393;51.446;6.800;2023-12-20T11:48:00;7.80;1.00
14614;DHT22;7393;51.446;6.800;2023-12-20T11:50:28;7.80;1.00
14614;DHT22;7393;51.446;6.800;2023-12-20T11:52:55;7.80;1.00
14614;DHT22;7393;51.446;6.800;2023-12-20T11:55:22;7.90;1.00
14614;DHT22;7393;51.446;6.800;2023-12-20T11:57:50;7.80;1.00
14614;DHT22;7393;51.446;6.800;2023-12-20T12:00:18;8.00;1.00
14614;DHT22;7393;51.446;6.800;2023-12-20T12:02:57;7.80;99.90
14614;DHT22;7393;51.446;6.800;2023-12-20T12:05:24;8.00;99.90
14614;DHT22;7393;51.446;6.800;2023-12-20T12:07:51;7.80;99.90
14614;DHT22;7393;51.446;6.800;2023-12-20T12:10:18;7.80;99.90
14614;DHT22;7393;51.446;6.800;2023-12-20T12:12:45;7.80;99.90
14614;DHT22;7393;51.446;6.800;2023-12-20T12:15:12;7.90;99.90
14614;DHT22;7393;51.446;6.800;2023-12-20T12:17:39;7.80;99.90
14614;DHT22;7393;51.446;6.800;2023-12-20T12:20:08;7.80;99.90
14614;DHT22;7393;51.446;6.800;2023-12-20T12:22:35;7.80;99.90
14614;DHT22;7393;51.446;6.800;2023-12-20T12:25:09;7.90;99.90
14614;DHT22;7393;51.446;6.800;2023-12-20T12:27:36;7.90;99.90
14614;DHT22;7393;51.446;6.800;2023-12-20T12:30:06;7.90;99.90
14614;DHT22;7393;51.446;6.800;2023-12-20T12:32:33;7.90;99.90
14614;DHT22;7393;51.446;6.800;2023-12-20T12:35:02;7.90;99.90
14614;DHT22;7393;51.446;6.800;2023-12-20T12:37:30;7.90;99.90
14614;DHT22;7393;51.446;6.800;2023-12-20T12:39:57;7.90;99.90
14614;DHT22;7393;51.446;6.800;2023-12-20T12:42:24;7.90;99.90
14614;DHT22;7393;51.446;6.800;2023-12-20T12:44:54;7.90;99.90
14614;DHT22;7393;51.446;6.800;2023-12-20T12:47:21;7.80;99.90
14614;DHT22;7393;51.446;6.800;2023-12-20T12:49:49;7.80;99.90
14614;DHT22;7393;51.446;6.800;2023-12-20T12:52:17;7.80;99.90
14614;DHT22;7393;51.446;6.800;2023-12-20T12:54:45;7.80;99.90
14614;DHT22;7393;51.446;6.800;2023-12-20T12:57:14;7.80;99.90
14614;DHT22;7393;51.446;6.800;2023-12-20T12:59:41;7.80;99.90
14614;DHT22;7393;51.446;6.800;2023-12-20T13:02:08;7.90;99.90
14614;DHT22;7393;51.446;6.800;2023-12-20T13:04:34;7.90;99.90
14614;DHT22;7393;51.446;6.800;2023-12-20T13:07:01;7.80;99.90
14614;DHT22;7393;51.446;6.800;2023-12-20T13:09:28;7.80;99.90
14614;DHT22;7393;51.446;6.800;2023-12-20T13:11:57;7.80;1.00
14614;DHT22;7393;51.446;6.800;2023-12-20T13:14:24;7.80;99.90
14614;DHT22;7393;51.446;6.800;2023-12-20T13:16:51;7.80;1.00
14614;DHT22;7393;51.446;6.800;2023-12-20T13:19:17;7.80;1.00
14614;DHT22;7393;51.446;6.800;2023-12-20T13:21:44;7.80;1.00
14614;DHT22;7393;51.446;6.800;2023-12-20T13:24:11;7.80;1.00
14614;DHT22;7393;51.446;6.800;2023-12-20T13:26:38;7.70;1.00
14614;DHT22;7393;51.446;6.800;2023-12-20T13:29:06;7.70;1.00
14614;DHT22;7393;51.446;6.800;2023-12-20T13:31:33;7.70;1.00
14614;DHT22;7393;51.446;6.800;2023-12-20T13:34:01;7.60;1.00
14614;DHT22;7393;51.446;6.800;2023-12-20T13:36:28;7.70;1.00
14614;DHT22;7393;51.446;6.800;2023-12-20T13:38:55;7.60;1.00
14614;DHT22;7393;51.446;6.800;2023-12-20T13:41:22;7.70;1.00
14614;DHT22;7393;51.446;6.800;2023-12-20T13:43:49;7.70;1.00
14614;DHT22;7393;51.446;6.800;2023-12-20T13:46:17;7.70;1.00
14614;DHT22;7393;51.446;6.800;2023-12-20T13:48:44;7.60;1.00
14614;DHT22;7393;51.446;6.800;2023-12-20T13:51:11;7.70;1.00
14614;DHT22;7393;51.446;6.800;2023-12-20T13:53:38;7.70;1.00
14614;DHT22;7393;51.446;6.800;2023-12-20T13:56:05;7.60;1.00
14614;DHT22;7393;51.446;6.800;2023-12-20T13:58:32;7.50;1.00
14614;DHT22;7393;51.446;6.800;2023-12-20T14:00:59;7.60;1.00
14614;DHT22;7393;51.446;6.800;2023-12-20T14:03:27;7.60;1.00
14614;DHT22;7393;51.446;6.800;2023-12-20T14:05:54;7.60;1.00
14614;DHT22;7393;51.446;6.800;2023-12-20T14:08:21;7.60;1.00
14614;DHT22;7393;51.446;6.800;2023-12-20T14:10:48;7.60;1.00
14614;DHT22;7393;51.446;6.800;2023-12-20T14:13:15;7.60;1.00
14614;DHT22;7393;51.446;6.800;2023-12-20T14:15:42;7.50;1.00
14614;DHT22;7393;51.446;6.800;2023-12-20T14:18:09;7.50;1.00
14614;DHT22;7393;51.446;6.800;2023-12-20T14:20:39;7.60;1.00
14614;DHT22;7393;51.446;6.800;2023-12-20T14:23:08;7.60;1.00
14614;DHT22;7393;51.446;6.800;2023-12-20T14:25:35;7.60;1.00
14614;DHT22;7393;51.446;6.800;2023-12-20T14:28:03;7.60;1.00
14614;DHT22;7393;51.446;6.800;2023-12-20T14:30:29;7.60;1.00
14614;DHT22;7393;51.446;6.800;2023-12-20T14:32:56;7.60;1.00
14614;DHT22;7393;51.446;6.800;2023-12-20T14:35:23;7.60;1.00
14614;DHT22;7393;51.446;6.800;2023-12-20T14:37:52;7.60;1.00
14614;DHT22;7393;51.446;6.800;2023-12-20T14:40:19;7.70;1.00
14614;DHT22;7393;51.446;6.800;2023-12-20T14:42:46;7.70;1.00
14614;DHT22;7393;51.446;6.800;2023-12-20T14:45:13;7.70;1.00
14614;DHT22;7393;51.446;6.800;2023-12-20T14:47:41;7.70;1.00
14614;DHT22;7393;51.446;6.800;2023-12-20T14:50:09;7.60;1.00
14614;DHT22;7393;51.446;6.800;2023-12-20T14:52:37;7.70;1.00
14614;DHT22;7393;51.446;6.800;2023-12-20T14:55:06;7.70;1.00
14614;DHT22;7393;51.446;6.800;2023-12-20T14:57:32;7.70;1.00
14614;DHT22;7393;51.446;6.800;2023-12-20T14:59:59;7.60;1.00
14614;DHT22;7393;51.446;6.800;2023-12-20T15:02:26;7.70;1.00
14614;DHT22;7393;51.446;6.800;2023-12-20T15:04:53;7.70;1.00
14614;DHT22;7393;51.446;6.800;2023-12-20T15:07:19;7.70;1.00
14614;DHT22;7393;51.446;6.800;2023-12-20T15:09:46;7.80;1.00
14614;DHT22;7393;51.446;6.800;2023-12-20T15:12:14;7.50;1.00
14614;DHT22;7393;51.446;6.800;2023-12-20T15:14:41;7.80;1.00
14614;DHT22;7393;51.446;6.800;2023-12-20T15:17:08;7.80;1.00
14614;DHT22;7393;51.446;6.800;2023-12-20T15:19:35;7.80;1.00
14614;DHT22;7393;51.446;6.800;2023-12-20T15:22:02;7.80;1.00
14614;DHT22;7393;51.446;6.800;2023-12-20T15:24:29;7.80;1.00
14614;DHT22;7393;51.446;6.800;2023-12-20T15:27:04;7.90;1.00
14614;DHT22;7393;51.446;6.800;2023-12-20T15:29:32;7.90;1.00
14614;DHT22;7393;51.446;6.800;2023-12-20T15:31:59;7.90;1.00
14614;DHT22;7393;51.446;6.800;2023-12-20T15:34:26;7.90;1.00
14614;DHT22;7393;51.446;6.800;2023-12-20T15:36:53;7.90;1.00
14614;DHT22;7393;51.446;6.800;2023-12-20T15:39:20;7.90;1.00
14614;DHT22;7393;51.446;6.800;2023-12-20T15:41:46;8.00;1.00
14614;DHT22;7393;51.446;6.800;2023-12-20T15:44:13;8.00;1.00
14614;DHT22;7393;51.446;6.800;2023-12-20T15:46:42;8.00;1.00
14614;DHT22;7393;51.446;6.800;2023-12-20T15:49:09;8.00;1.00
14614;DHT22;7393;51.446;6.800;2023-12-20T15:51:36;8.00;1.00
14614;DHT22;7393;51.446;6.800;2023-12-20T15:54:04;8.00;1.00
14614;DHT22;7393;51.446;6.800;2023-12-20T15:56:32;8.10;1.00
14614;DHT22;7393;51.446;6.800;2023-12-20T15:58:58;8.10;1.00
14614;DHT22;7393;51.446;6.800;2023-12-20T16:01:25;8.10;1.00
14614;DHT22;7393;51.446;6.800;2023-12-20T16:03:54;8.00;1.00
14614;DHT22;7393;51.446;6.800;2023-12-20T16:06:20;8.20;1.00
14614;DHT22;7393;51.446;6.800;2023-12-20T16:08:47;8.00;1.00
14614;DHT22;7393;51.446;6.800;2023-12-20T16:11:15;8.10;1.00
14614;DHT22;7393;51.446;6.800;2023-12-20T16:13:42;8.10;1.00
14614;DHT22;7393;51.446;6.800;2023-12-20T16:16:09;8.10;1.00